Time;durP1;ratioP1;P1;durP2;ratioP2;P2;SDS_P1;SDS_P2;PMS_P1;PMS_P2;Temp;Humidity;BMP_temperature;BMP_pressure;BME280_temperature;BME280_humidity;BME280_pressure;Samples;Min_cycle;Max_cycle;Signal;HPM_P1;HPM_P2
2020/12/21 00:01:42;;;;;;;23.67;9.55;;;5.20;99.90;;;6.14;93.99;101756.66;5072424;28;20215;-68
2020/12/21 00:04:08;;;;;;;22.40;9.05;;;5.20;99.90;;;6.14;94.14;101746.25;5072711;28;20184;-68
2020/12/21 00:06:35;;;;;;;25.45;10.07;;;5.20;99.90;;;6.19;94.31;101747.97;5071233;28;20188;-69
2020/12/21 00:09:02;;;;;;;21.45;9.70;;;5.20;99.90;;;6.20;94.27;101748.81;5072206;28;20188;-68
2020/12/21 00:11:33;;;;;;;23.70;9.60;;;5.20;99.90;;;6.16;94.13;101744.53;5072181;28;20231;-69
2020/12/21 00:14:00;;;;;;;23.92;9.32;;;5.20;99.90;;;6.13;94.34;101752.31;5071989;28;20192;-68
2020/12/21 00:16:26;;;;;;;21.10;8.52;;;5.10;99.90;;;6.14;94.59;101757.53;5072036;28;20241;-68
2020/12/21 00:18:52;;;;;;;25.55;10.02;;;5.20;99.90;;;6.17;94.60;101757.50;5070760;28;20195;-69
2020/12/21 00:21:18;;;;;;;23.30;9.70;;;5.20;99.90;;;6.22;94.75;101749.69;5071866;28;20219;-68
2020/12/21 00:23:45;;;;;;;24.33;9.85;;;5.20;99.90;;;6.27;94.77;101761.81;5087947;28;20550;-69
2020/12/21 00:26:12;;;;;;;23.35;9.82;;;5.30;99.90;;;6.31;94.86;101754.88;5071951;28;20184;-69
2020/12/21 00:28:38;;;;;;;24.20;9.93;;;5.30;99.90;;;6.34;94.87;101760.94;5072024;28;20622;-69
2020/12/21 00:31:04;;;;;;;22.20;9.43;;;5.40;99.90;;;6.37;94.85;101767.84;5072014;28;20226;-69
2020/12/21 00:33:32;;;;;;;23.92;9.40;;;5.40;99.90;;;6.40;95.13;101766.97;5071733;28;20297;-69
2020/12/21 00:35:59;;;;;;;22.33;9.30;;;5.40;99.90;;;6.37;94.95;101770.44;5071705;28;20188;-68
2020/12/21 00:38:25;;;;;;;28.60;10.30;;;5.40;99.90;;;6.32;95.16;101764.38;5071437;28;20567;-69
2020/12/21 00:40:51;;;;;;;23.20;9.77;;;5.40;99.90;;;6.34;95.25;101770.44;5087284;28;20219;-69
2020/12/21 00:43:19;;;;;;;22.50;9.82;;;5.40;99.90;;;6.34;95.21;101767.84;5071707;28;20226;-69
2020/12/21 00:45:45;;;;;;;24.20;9.38;;;5.40;99.90;;;6.33;95.33;101772.16;5071618;28;20656;-69
2020/12/21 00:48:11;;;;;;;21.92;9.88;;;5.40;99.90;;;6.34;95.31;101767.84;5069887;28;20574;-68
2020/12/21 00:50:37;;;;;;;23.88;9.13;;;5.40;99.90;;;6.36;95.41;101771.31;5073770;28;20613;-68
2020/12/21 00:53:03;;;;;;;23.20;9.20;;;5.50;99.90;;;6.37;95.17;101773.03;5071507;28;20207;-68
2020/12/21 00:55:30;;;;;;;24.75;10.40;;;5.50;99.90;;;6.33;95.34;101773.91;5071567;28;20526;-68
2020/12/21 00:57:56;;;;;;;24.65;9.68;;;5.50;99.90;;;6.30;95.13;101786.91;5070928;28;20184;-68
2020/12/21 01:00:23;;;;;;;22.90;9.85;;;5.50;99.90;;;6.26;95.59;101780.84;5071340;28;20192;-68
2020/12/21 01:02:49;;;;;;;23.80;9.55;;;5.50;99.90;;;6.30;95.42;101786.91;5071633;28;20563;-68
2020/12/21 01:05:16;;;;;;;23.80;9.63;;;5.50;99.90;;;6.34;95.55;101786.03;5071579;28;20549;-68
2020/12/21 01:07:42;;;;;;;22.85;10.10;;;5.50;99.90;;;6.36;95.68;101781.72;5071614;28;20188;-68
2020/12/21 01:10:08;;;;;;;21.52;9.52;;;5.50;99.90;;;6.39;95.52;101779.09;5071467;28;20195;-68
2020/12/21 01:12:34;;;;;;;20.65;8.90;;;5.60;99.90;;;6.43;95.46;101788.59;5070086;28;20231;-69
2020/12/21 01:15:00;;;;;;;24.00;9.75;;;5.60;99.90;;;6.39;95.21;101786.88;5071652;28;20207;-69
2020/12/21 01:17:32;;;;;;;23.67;9.35;;;5.60;99.90;;;6.38;95.11;101785.13;5071551;28;20207;-68
2020/12/21 01:19:59;;;;;;;22.65;9.38;;;5.60;99.90;;;6.38;94.85;101785.13;5069948;28;20232;-68
2020/12/21 01:22:25;;;;;;;21.70;8.75;;;5.60;99.90;;;6.34;94.49;101780.84;5072662;28;20208;-68
2020/12/21 01:24:51;;;;;;;23.77;9.07;;;5.60;99.90;;;6.33;94.69;101781.69;5071889;28;20656;-68
2020/12/21 01:27:20;;;;;;;20.67;8.95;;;5.60;99.90;;;6.40;94.74;101782.56;5072768;28;20313;-69
2020/12/21 01:29:46;;;;;;;20.77;8.93;;;5.60;99.90;;;6.42;94.47;101786.00;5074598;28;20211;-69
2020/12/21 01:32:12;;;;;;;22.33;9.00;;;5.60;99.90;;;6.44;94.46;101779.06;5071214;28;20204;-68
2020/12/21 01:34:40;;;;;;;22.65;9.38;;;5.70;99.90;;;6.45;94.20;101784.25;5070919;28;20664;-68
2020/12/21 01:37:06;;;;;;;24.00;9.85;;;5.70;99.90;;;6.48;94.24;101786.00;5071206;28;20180;-68
2020/12/21 01:39:32;;;;;;;22.65;8.80;;;5.70;99.90;;;6.48;93.96;101780.81;5070968;28;20524;-69
2020/12/21 01:41:58;;;;;;;21.17;8.90;;;5.70;99.90;;;6.47;93.88;101779.94;5071011;28;20200;-68
2020/12/21 01:44:25;;;;;;;18.63;8.43;;;5.70;99.90;;;6.48;93.89;101776.44;5070861;28;20211;-68
2020/12/21 01:46:51;;;;;;;20.65;8.55;;;5.70;99.90;;;6.51;93.79;101775.59;5069604;28;20283;-68
2020/12/21 01:49:20;;;;;;;19.52;8.27;;;5.80;99.90;;;6.54;93.74;101779.03;5068926;28;20192;-68
2020/12/21 01:51:47;;;;;;;22.08;9.43;;;5.80;99.90;;;6.56;93.63;101776.44;5070814;28;20951;-68
2020/12/21 01:54:14;;;;;;;22.95;9.10;;;5.90;99.90;;;6.57;93.63;101775.53;5070909;28;20183;-69
2020/12/21 01:56:42;;;;;;;22.45;8.93;;;5.90;99.90;;;6.54;93.56;101776.44;5070829;28;20207;-68
2020/12/21 01:59:08;;;;;;;21.15;8.43;;;5.90;99.90;;;6.50;93.51;101768.66;5070692;28;20191;-69
2020/12/21 02:01:38;;;;;;;18.40;7.80;;;5.90;99.90;;;6.48;93.59;101770.41;5070124;28;20227;-68
2020/12/21 02:04:04;;;;;;;19.75;8.43;;;5.90;99.90;;;6.50;94.03;101766.06;5073382;28;20675;-68
2020/12/21 02:06:30;;;;;;;22.35;9.15;;;5.90;99.90;;;6.55;93.73;101767.75;5075045;28;20656;-68
2020/12/21 02:08:57;;;;;;;22.35;8.63;;;5.90;99.90;;;6.58;93.47;101766.91;5074986;28;20180;-68
2020/12/21 02:11:25;;;;;;;19.23;8.43;;;5.90;99.90;;;6.59;93.41;101768.59;5074892;28;20207;-68
2020/12/21 02:13:51;;;;;;;18.50;8.02;;;5.90;99.90;;;6.59;93.32;101769.47;5075001;28;20215;-68
2020/12/21 02:16:17;;;;;;;19.23;8.35;;;5.90;99.90;;;6.59;93.15;101779.88;5075098;28;20192;-68
2020/12/21 02:18:44;;;;;;;21.83;8.77;;;5.90;99.90;;;6.54;92.88;101779.03;5074583;28;20185;-69
2020/12/21 02:21:11;;;;;;;22.38;9.27;;;5.90;99.90;;;6.50;93.12;101784.25;5073939;28;20704;-68
2020/12/21 02:23:37;;;;;;;20.90;8.82;;;5.90;99.90;;;6.48;93.06;101786.00;5074823;28;20192;-68
2020/12/21 02:26:03;;;;;;;19.80;8.07;;;5.90;99.90;;;6.46;93.38;101793.81;5074806;28;20542;-68
2020/12/21 02:28:29;;;;;;;19.50;8.48;;;5.80;99.90;;;6.43;93.22;101788.59;5074088;28;20555;-68
2020/12/21 02:30:56;;;;;;;21.02;8.93;;;5.80;99.90;;;6.46;93.30;101793.81;5074305;28;20204;-69
2020/12/21 02:33:22;;;;;;;21.38;8.65;;;5.80;99.90;;;6.47;93.55;101789.44;5074671;28;20242;-68
2020/12/21 02:35:48;;;;;;;19.92;8.52;;;5.80;99.90;;;6.50;93.37;101795.50;5074395;28;20184;-68
2020/12/21 02:38:15;;;;;;;20.33;8.27;;;5.80;99.90;;;6.48;93.60;101797.25;5074055;28;20192;-68
2020/12/21 02:40:42;;;;;;;19.75;8.63;;;5.80;99.90;;;6.52;93.17;101806.78;5072526;28;20211;-68
2020/12/21 02:43:08;;;;;;;23.35;8.70;;;5.90;99.90;;;6.58;93.38;101813.69;5073799;28;20188;-67
2020/12/21 02:45:34;;;;;;;20.15;8.50;;;5.90;99.90;;;6.61;93.33;101821.47;5073724;28;20187;-68
2020/12/21 02:48:00;;;;;;;21.45;9.02;;;5.90;99.90;;;6.58;93.15;101808.50;5073805;28;20192;-69
2020/12/21 02:50:26;;;;;;;18.52;8.45;;;6.00;99.90;;;6.56;93.37;101808.50;5072242;28;20192;-69
2020/12/21 02:52:53;;;;;;;20.50;8.38;;;6.00;99.90;;;6.55;93.21;101811.94;5073564;28;20254;-68
2020/12/21 02:55:20;;;;;;;19.85;8.95;;;6.00;99.90;;;6.56;93.32;101811.09;5073721;28;20184;-68
2020/12/21 02:57:48;;;;;;;24.45;9.40;;;6.00;99.90;;;6.56;93.10;101807.63;5073667;28;20881;-68
2020/12/21 03:00:14;;;;;;;18.75;8.07;;;6.00;99.90;;;6.57;93.41;101807.63;5073505;28;20180;-68
2020/12/21 03:02:41;;;;;;;20.23;8.85;;;6.00;99.90;;;6.59;93.58;101795.47;5089103;28;20243;-68
2020/12/21 03:05:07;;;;;;;19.08;9.55;;;6.00;99.90;;;6.63;93.53;101801.53;5073492;28;20207;-68
2020/12/21 03:07:34;;;;;;;26.73;9.63;;;6.00;99.90;;;6.64;93.32;101803.25;5073579;28;20199;-69
2020/12/21 03:10:00;;;;;;;21.23;9.00;;;6.10;99.90;;;6.61;93.24;101809.34;5072076;28;20196;-68
2020/12/21 03:12:27;;;;;;;20.27;8.88;;;6.00;99.90;;;6.62;93.21;101805.88;5070498;28;20583;-68
2020/12/21 03:14:53;;;;;;;20.88;8.70;;;6.10;99.90;;;6.66;93.30;101799.78;5073131;28;20184;-69
2020/12/21 03:17:20;;;;;;;19.33;9.15;;;6.10;99.90;;;6.68;93.20;101802.38;5088874;28;20200;-67
2020/12/21 03:19:46;;;;;;;21.55;9.15;;;6.10;99.90;;;6.71;93.30;101807.56;5071922;28;20182;-68
2020/12/21 03:22:13;;;;;;;21.08;8.85;;;6.10;99.90;;;6.72;93.22;101811.88;5073095;28;20208;-68
2020/12/21 03:24:39;;;;;;;21.98;9.25;;;6.10;99.90;;;6.73;93.15;101806.69;5072926;28;20735;-68
2020/12/21 03:27:05;;;;;;;21.38;9.68;;;6.20;99.90;;;6.74;93.03;101803.22;5072417;28;20188;-69
2020/12/21 03:29:32;;;;;;;21.60;9.68;;;6.20;99.90;;;6.75;93.08;101799.75;5072781;28;20629;-68
2020/12/21 03:31:59;;;;;;;21.40;9.13;;;6.20;99.90;;;6.73;92.86;101796.28;5073004;28;20215;-68
2020/12/21 03:34:25;;;;;;;20.25;8.88;;;6.20;99.90;;;6.68;92.67;101803.22;5071583;28;20199;-68
2020/12/21 03:36:51;;;;;;;23.02;9.60;;;6.20;99.90;;;6.65;92.62;101800.66;5073012;28;20652;-68
2020/12/21 03:39:17;;;;;;;22.10;9.75;;;6.10;99.90;;;6.63;92.76;101797.19;5071435;28;20211;-69
2020/12/21 03:41:43;;;;;;;22.95;10.02;;;6.10;99.90;;;6.66;92.87;101792.00;5072825;28;20216;-68
2020/12/21 03:44:10;;;;;;;21.30;10.02;;;6.10;99.90;;;6.71;93.28;101789.38;5072949;28;20203;-68
2020/12/21 03:46:37;;;;;;;22.98;9.73;;;6.20;99.90;;;6.74;92.96;101795.41;5072855;28;20238;-68
2020/12/21 03:49:03;;;;;;;23.00;10.07;;;6.20;99.90;;;6.74;92.89;101794.53;5072450;28;20192;-68
2020/12/21 03:51:29;;;;;;;22.95;10.02;;;6.20;99.90;;;6.72;93.02;101791.97;5071025;28;20215;-68
2020/12/21 03:53:55;;;;;;;22.90;9.85;;;6.20;99.90;;;6.71;92.94;101784.16;5072686;28;20223;-68
2020/12/21 03:56:22;;;;;;;23.90;9.95;;;6.20;99.90;;;6.72;92.99;101784.16;5072429;28;20211;-68
2020/12/21 03:58:48;;;;;;;22.95;9.93;;;6.20;99.90;;;6.69;92.65;101778.97;5087714;28;20200;-68
2020/12/21 04:01:14;;;;;;;19.50;9.15;;;6.20;99.90;;;6.69;92.79;101784.19;5072405;28;20203;-69
2020/12/21 04:03:41;;;;;;;20.55;9.85;;;6.20;99.90;;;6.69;92.95;101788.50;5072512;28;20579;-68
2020/12/21 04:06:07;;;;;;;22.08;10.50;;;6.20;99.90;;;6.69;92.75;101789.38;5072285;28;20230;-68
2020/12/21 04:08:33;;;;;;;22.38;9.98;;;6.20;99.90;;;6.70;92.92;101793.69;5072267;28;20192;-68
2020/12/21 04:11:00;;;;;;;23.02;9.85;;;6.20;99.90;;;6.67;92.90;101796.31;5072346;28;20758;-68
2020/12/21 04:13:27;;;;;;;24.85;9.98;;;6.20;99.90;;;6.69;93.08;101799.78;5071989;28;20700;-67
2020/12/21 04:15:53;;;;;;;23.02;10.05;;;6.20;99.90;;;6.70;93.22;101800.66;5072276;28;20825;-68
2020/12/21 04:18:19;;;;;;;21.27;9.90;;;6.20;99.90;;;6.69;93.05;101802.38;5070677;28;20192;-68
2020/12/21 04:20:47;;;;;;;21.10;9.93;;;6.10;99.90;;;6.69;92.93;101806.69;5071963;28;20214;-68
2020/12/21 04:23:13;;;;;;;19.95;9.02;;;6.20;99.90;;;6.68;92.73;101803.22;5072142;28;20537;-68
2020/12/21 04:25:39;;;;;;;24.17;9.82;;;6.20;99.90;;;6.71;93.09;101797.16;5070213;28;20234;-68
2020/12/21 04:28:05;;;;;;;20.08;9.55;;;6.20;99.90;;;6.74;92.91;101794.53;5071632;28;20199;-68
2020/12/21 04:30:32;;;;;;;23.65;9.88;;;6.20;99.90;;;6.71;92.58;101800.66;5071782;28;20188;-68
2020/12/21 04:32:58;;;;;;;23.33;9.35;;;6.20;99.90;;;6.69;92.65;101799.78;5071924;28;20215;-69
2020/12/21 04:35:24;;;;;;;21.00;9.13;;;6.20;99.90;;;6.70;92.82;101792.84;5071909;28;20747;-69
2020/12/21 04:37:51;;;;;;;22.35;9.82;;;6.10;99.90;;;6.70;93.07;101798.91;5070521;28;20195;-69
2020/12/21 04:40:20;;;;;;;21.38;9.23;;;6.20;99.90;;;6.71;92.76;101791.97;5071371;28;20203;-69
2020/12/21 04:42:48;;;;;;;24.92;10.10;;;6.10;99.90;;;6.70;92.84;101800.66;5087184;28;20591;-68
2020/12/21 04:45:15;;;;;;;23.30;9.85;;;6.10;99.90;;;6.67;92.87;101787.63;5071771;28;20188;-68
2020/12/21 04:47:43;;;;;;;20.83;9.70;;;6.10;99.90;;;6.65;92.78;101792.84;5071246;28;20196;-68
2020/12/21 04:50:12;;;;;;;21.48;9.38;;;6.10;99.90;;;6.60;92.63;101785.97;5070616;28;20211;-68
2020/12/21 04:52:48;;;;;;;24.20;10.77;;;6.10;99.90;;;6.56;92.83;101792.91;5070752;28;20208;-68
2020/12/21 04:55:19;;;;;;;22.08;9.38;;;6.10;99.90;;;6.49;92.87;101792.91;5070424;28;20309;-68
2020/12/21 04:57:57;;;;;;;23.25;10.10;;;6.00;99.90;;;6.46;92.88;101775.59;5070650;28;20663;-69
2020/12/21 05:00:25;;;;;;;23.35;10.23;;;6.00;99.90;;;6.51;93.41;101786.84;5069373;28;20199;-68
2020/12/21 05:02:51;;;;;;;22.98;9.90;;;6.00;99.90;;;6.54;93.25;101780.75;5071255;28;20191;-68
2020/12/21 05:05:32;;;;;;;23.48;9.82;;;6.00;99.90;;;6.54;93.04;101788.56;5072291;28;20180;-68
2020/12/21 05:08:07;;;;;;;22.23;9.48;;;6.00;99.90;;;6.49;92.84;101783.38;5071911;28;20191;-68
2020/12/21 05:10:34;;;;;;;22.20;9.63;;;5.90;99.90;;;6.51;92.99;101786.84;5072674;28;20192;-68
2020/12/21 05:13:03;;;;;;;23.13;9.50;;;5.90;99.90;;;6.57;93.21;101793.75;5072874;28;20222;-68
2020/12/21 05:15:30;;;;;;;21.50;9.82;;;5.90;99.90;;;6.58;92.87;101795.50;5074966;28;20192;-68
2020/12/21 05:18:10;;;;;;;23.55;10.35;;;6.00;99.90;;;6.57;93.00;101789.41;5073368;28;20199;-69
2020/12/21 05:20:38;;;;;;;22.75;9.82;;;6.00;99.90;;;6.56;93.06;101790.31;5070570;28;20215;-68
2020/12/21 05:23:14;;;;;;;23.08;9.55;;;6.00;99.90;;;6.55;92.90;101793.75;5070553;28;20184;-68
2020/12/21 05:25:41;;;;;;;22.60;9.82;;;6.00;99.90;;;6.50;93.25;101779.91;5067927;28;20191;-68
2020/12/21 05:28:15;;;;;;;20.27;9.43;;;6.00;99.90;;;6.49;93.01;101782.50;5069829;28;20188;-69
2020/12/21 05:30:52;;;;;;;24.23;10.07;;;6.00;99.90;;;6.47;92.94;101790.31;5069465;28;20695;-69
2020/12/21 05:33:19;;;;;;;21.23;9.50;;;6.00;99.90;;;6.50;93.32;101794.66;5061915;28;20212;-68
2020/12/21 05:35:45;;;;;;;24.15;9.43;;;5.90;99.90;;;6.50;93.34;101785.09;5070041;28;20361;-68
2020/12/21 05:38:24;;;;;;;24.17;9.93;;;6.00;99.90;;;6.51;92.95;101789.47;5067718;28;20188;-69
2020/12/21 05:40:53;;;;;;;22.58;9.57;;;6.00;99.90;;;6.52;93.23;101787.69;5069907;28;20215;-68
2020/12/21 05:43:28;;;;;;;22.27;9.38;;;6.00;99.90;;;6.54;93.04;101786.84;5070032;28;20238;-68
2020/12/21 05:46:11;;;;;;;23.38;10.20;;;6.00;99.90;;;6.53;93.14;101795.50;5070248;28;20184;-68
2020/12/21 05:48:40;;;;;;;22.05;9.68;;;6.00;99.90;;;6.52;93.04;101788.56;5053556;28;482197;-68
2020/12/21 05:51:09;;;;;;;21.02;9.77;;;6.00;99.90;;;6.51;92.86;101789.47;5070822;28;20253;-68
2020/12/21 05:53:39;;;;;;;19.80;8.82;;;6.00;99.90;;;6.49;92.92;101785.13;5069541;28;20219;-68
2020/12/21 05:56:08;;;;;;;21.98;9.93;;;5.90;99.90;;;6.41;92.86;101797.28;5071620;28;20191;-68
2020/12/21 05:58:38;;;;;;;22.30;9.52;;;5.90;99.90;;;6.36;93.12;101802.50;5071878;28;20188;-69
2020/12/21 06:01:07;;;;;;;21.55;9.95;;;5.90;99.90;;;6.34;93.04;101793.84;5071501;28;20200;-68
2020/12/21 06:03:39;;;;;;;22.50;9.02;;;5.80;99.90;;;6.32;93.12;101787.78;5072087;28;20188;-68
2020/12/21 06:06:09;;;;;;;21.70;9.23;;;5.80;99.90;;;6.32;93.37;101786.06;5071882;28;20294;-69
2020/12/21 06:08:36;;;;;;;24.80;10.02;;;5.80;99.90;;;6.35;93.08;101785.16;5071115;28;20203;-68
2020/12/21 06:11:12;;;;;;;23.15;9.23;;;5.80;99.90;;;6.35;93.05;101785.16;5071757;28;20298;-68
2020/12/21 06:13:43;;;;;;;22.17;10.00;;;5.80;99.90;;;6.37;93.25;101793.81;5070878;28;20336;-68
2020/12/21 06:16:15;;;;;;;22.65;9.43;;;5.80;99.90;;;6.36;93.28;101798.16;5070974;28;20191;-69
2020/12/21 06:18:41;;;;;;;21.42;9.75;;;5.80;99.90;;;6.32;92.88;101796.44;5070753;28;20176;-68
2020/12/21 06:21:07;;;;;;;21.75;9.30;;;5.80;99.90;;;6.28;93.07;101809.44;5070708;28;20211;-69
2020/12/21 06:23:37;;;;;;;21.98;9.68;;;5.80;99.90;;;6.31;93.26;101809.44;5070803;28;20188;-68
2020/12/21 06:26:14;;;;;;;23.50;9.55;;;5.80;99.90;;;6.33;93.34;101802.47;5070603;28;20223;-68
2020/12/21 06:28:41;;;;;;;20.42;9.13;;;5.80;99.90;;;6.31;93.15;101814.66;5070656;28;20195;-68
2020/12/21 06:31:18;;;;;;;23.27;9.80;;;5.80;99.90;;;6.31;93.08;101814.66;5069776;28;20212;-68
2020/12/21 06:33:46;;;;;;;23.90;10.00;;;5.70;99.90;;;6.28;93.03;101814.63;5070587;28;20208;-69
2020/12/21 06:36:14;;;;;;;24.33;9.93;;;5.70;99.90;;;6.22;92.77;101817.25;5070675;28;20188;-68
2020/12/21 06:38:48;;;;;;;22.70;9.57;;;5.70;99.90;;;6.18;93.02;101816.38;5070295;28;20196;-68
2020/12/21 06:41:18;;;;;;;22.55;8.98;;;5.70;99.90;;;6.17;92.84;101813.78;5070633;28;20721;-68
2020/12/21 06:43:55;;;;;;;26.25;10.30;;;5.70;99.90;;;6.18;93.39;101811.19;5070519;28;20459;-68
2020/12/21 06:46:22;;;;;;;21.08;8.82;;;5.70;99.90;;;6.18;93.37;101816.38;5069064;28;20191;-68
2020/12/21 06:49:03;;;;;;;23.30;9.45;;;5.70;99.90;;;6.16;93.08;101822.47;5072461;28;20199;-69
2020/12/21 06:51:29;;;;;;;20.30;9.20;;;5.60;99.90;;;6.18;93.23;101828.50;5072581;28;20212;-69
2020/12/21 06:54:01;;;;;;;24.50;9.70;;;5.60;99.90;;;6.17;93.24;101819.00;5073889;28;20227;-68
2020/12/21 06:56:28;;;;;;;25.25;10.07;;;5.60;99.90;;;6.19;93.06;101830.25;5074102;28;20271;-68
2020/12/21 06:58:56;;;;;;;22.40;9.38;;;5.60;99.90;;;6.20;93.14;101821.56;5089311;28;20200;-68
2020/12/21 07:01:24;;;;;;;26.27;10.20;;;5.60;99.90;;;6.18;92.91;101824.19;5072061;28;20337;-68
2020/12/21 07:03:50;;;;;;;23.15;9.63;;;5.60;99.90;;;6.13;92.98;101820.72;5073503;28;20556;-69
2020/12/21 07:06:17;;;;;;;25.38;8.93;;;5.60;99.90;;;6.11;92.74;101829.41;5072308;28;20184;-68
2020/12/21 07:08:44;;;;;;;24.27;10.02;;;5.50;99.90;;;6.12;92.86;101833.72;5072066;28;20570;-68
2020/12/21 07:11:19;;;;;;;22.92;9.30;;;5.50;99.90;;;6.09;92.66;101829.41;5073701;28;20212;-68
2020/12/21 07:13:49;;;;;;;24.25;9.43;;;5.50;99.90;;;6.08;92.79;101832.84;5071765;28;20609;-68
2020/12/21 07:16:17;;;;;;;24.00;9.07;;;5.40;99.90;;;6.07;92.69;101840.66;5073681;28;20767;-68
2020/12/21 07:18:45;;;;;;;21.08;8.90;;;5.40;99.90;;;6.05;92.68;101843.25;5073305;28;20188;-68
2020/12/21 07:21:12;;;;;;;23.55;9.18;;;5.40;99.90;;;6.02;92.64;101848.47;5071091;28;20223;-68
2020/12/21 07:23:40;;;;;;;21.35;8.40;;;5.40;99.90;;;6.01;92.56;101854.50;5074520;28;20188;-69
2020/12/21 07:26:08;;;;;;;24.73;9.18;;;5.40;99.90;;;6.01;92.18;101861.47;5073279;28;20221;-69
2020/12/21 07:28:35;;;;;;;20.25;8.95;;;5.40;99.90;;;6.01;92.66;101866.66;5088357;28;20588;-68
2020/12/21 07:31:11;;;;;;;22.08;8.98;;;5.40;99.90;;;6.00;92.80;101851.91;5072055;28;20211;-68
2020/12/21 07:33:55;;;;;;;20.13;8.20;;;5.40;99.90;;;6.02;92.86;101852.78;5072831;28;20207;-68
2020/12/21 07:36:26;;;;;;;19.77;8.57;;;5.40;99.90;;;6.01;92.68;101856.25;5068233;28;20578;-69
2020/12/21 07:38:52;;;;;;;24.50;8.80;;;5.40;99.90;;;6.01;92.24;101857.09;5052656;28;20197;-68
2020/12/21 07:41:24;;;;;;;20.27;8.52;;;5.40;99.90;;;6.00;92.48;101862.31;5052932;28;20228;-68
2020/12/21 07:44:05;;;;;;;20.90;9.52;;;5.30;99.90;;;5.99;92.14;101858.00;5053134;28;20196;-69
2020/12/21 07:46:40;;;;;;;20.02;8.77;;;5.30;99.90;;;6.00;92.37;101859.69;5052953;28;20184;-68
2020/12/21 07:49:09;;;;;;;23.88;9.07;;;5.40;99.90;;;6.03;92.11;101865.78;5052862;28;20276;-68
2020/12/21 07:51:41;;;;;;;24.33;9.68;;;5.40;99.90;;;6.01;91.86;101867.50;5068232;28;20282;-68
2020/12/21 07:54:11;;;;;;;23.45;9.60;;;5.40;99.90;;;6.01;92.11;101862.28;5052653;28;20216;-68
2020/12/21 07:56:37;;;;;;;21.40;9.40;;;5.40;99.90;;;6.05;92.02;101865.75;5052672;28;20207;-68
2020/12/21 07:59:17;;;;;;;20.55;8.30;;;5.50;99.90;;;6.09;92.13;101873.56;5051231;28;20185;-68
2020/12/21 08:01:46;;;;;;;18.55;7.88;;;5.50;99.90;;;6.14;92.08;101863.16;5059816;28;20578;-68
2020/12/21 08:04:18;;;;;;;20.45;8.65;;;5.60;99.90;;;6.16;91.96;101862.28;5072506;28;20185;-69
2020/12/21 08:06:46;;;;;;;22.92;8.27;;;5.60;99.90;;;6.17;91.76;101863.16;5071178;28;20253;-68
2020/12/21 08:09:13;;;;;;;21.95;8.50;;;5.60;99.90;;;6.15;91.61;101864.88;5072313;28;20191;-68
2020/12/21 08:11:40;;;;;;;22.05;8.10;;;5.60;99.90;;;6.19;91.36;101864.91;5072662;28;20608;-69
2020/12/21 08:14:08;;;;;;;23.83;9.60;;;5.60;99.90;;;6.17;91.36;101874.44;5071904;28;20269;-69
2020/12/21 08:16:35;;;;;;;19.02;7.95;;;5.60;99.90;;;6.16;91.50;101869.25;5071557;28;20561;-68
2020/12/21 08:19:04;;;;;;;20.10;8.05;;;5.60;99.90;;;6.18;90.90;101867.47;5071967;28;20234;-68
2020/12/21 08:21:30;;;;;;;20.67;8.30;;;5.60;99.90;;;6.21;91.36;101875.28;5071968;28;20200;-68
2020/12/21 08:23:58;;;;;;;22.85;8.93;;;5.60;99.90;;;6.23;90.94;101873.53;5072028;28;20249;-68
2020/12/21 08:26:26;;;;;;;22.33;8.70;;;5.70;99.90;;;6.23;90.62;101879.59;5072192;28;20184;-68
2020/12/21 08:28:54;;;;;;;24.40;8.57;;;5.60;99.90;;;6.27;90.88;101877.88;5070598;28;20188;-68
2020/12/21 08:31:23;;;;;;;22.95;8.80;;;5.70;99.90;;;6.26;90.63;101878.75;5067261;28;20212;-69
2020/12/21 08:33:59;;;;;;;19.17;8.35;;;5.70;99.90;;;6.30;90.36;101880.47;5100860;28;20216;-68
2020/12/21 08:36:31;;;;;;;19.13;7.97;;;5.70;99.90;;;6.34;90.71;101883.06;5072131;28;20730;-68
2020/12/21 08:39:14;;;;;;;19.88;8.82;;;5.80;99.90;;;6.37;90.64;101884.78;5071891;28;20193;-68
2020/12/21 08:41:44;;;;;;;20.45;7.47;;;5.80;99.90;;;6.34;90.48;101877.88;5071987;28;20203;-68
2020/12/21 08:44:21;;;;;;;20.55;8.18;;;5.80;99.90;;;6.29;90.38;101882.22;5071903;28;20195;-68
2020/12/21 08:46:48;;;;;;;21.63;8.05;;;5.70;99.90;;;6.30;90.19;101888.25;5071736;28;20188;-68
2020/12/21 08:49:15;;;;;;;20.00;7.80;;;5.70;99.90;;;6.26;90.09;101887.41;5071340;28;20196;-69
2020/12/21 08:51:42;;;;;;;22.85;8.48;;;5.70;99.90;;;6.26;89.82;101886.56;5071628;28;20212;-68
2020/12/21 08:54:09;;;;;;;26.13;8.52;;;5.60;99.90;;;6.25;89.97;101888.28;5071534;28;20208;-69
2020/12/21 08:56:35;;;;;;;18.30;7.90;;;5.60;99.90;;;6.22;89.91;101890.00;5071814;28;20602;-68
2020/12/21 08:59:01;;;;;;;23.75;9.18;;;5.60;99.90;;;6.16;90.29;101893.47;5071341;28;20552;-68
2020/12/21 09:01:27;;;;;;;22.33;9.02;;;5.60;99.90;;;6.14;90.13;101895.22;5071429;28;20723;-69
2020/12/21 09:03:54;;;;;;;18.63;7.65;;;5.50;99.90;;;6.16;90.23;101893.47;5069891;28;20204;-68
2020/12/21 09:06:22;;;;;;;20.65;8.27;;;5.60;99.90;;;6.17;89.96;101899.53;5071324;28;20184;-68
2020/12/21 09:08:50;;;;;;;20.80;8.43;;;5.50;99.90;;;6.16;90.14;101893.47;5071310;28;20181;-68
2020/12/21 09:11:21;;;;;;;24.25;9.27;;;5.60;99.90;;;6.13;89.99;101893.47;5071003;28;20208;-68
2020/12/21 09:13:48;;;;;;;20.52;8.45;;;5.50;99.90;;;6.09;89.93;101891.75;5070720;28;20604;-68
2020/12/21 09:16:20;;;;;;;22.33;8.45;;;5.50;99.90;;;6.12;90.36;101901.28;5070130;28;20641;-68
2020/12/21 09:18:47;;;;;;;21.50;8.25;;;5.50;99.90;;;6.11;90.31;101904.75;5071179;28;20767;-68
2020/12/21 09:21:25;;;;;;;25.80;8.95;;;5.50;99.90;;;6.15;90.56;101899.53;5070397;28;20276;-68
2020/12/21 09:23:54;;;;;;;21.75;8.50;;;5.50;99.90;;;6.18;90.38;101903.84;5071254;28;20187;-69
2020/12/21 09:26:22;;;;;;;21.35;8.48;;;5.60;99.90;;;6.18;90.42;101899.53;5070193;28;20199;-68
2020/12/21 09:28:52;;;;;;;19.50;7.78;;;5.60;99.90;;;6.24;90.54;101899.56;5071416;28;20848;-68
2020/12/21 09:31:22;;;;;;;24.13;8.85;;;5.60;99.90;;;6.31;90.19;101897.81;5071574;28;21092;-68
2020/12/21 09:33:50;;;;;;;22.67;8.55;;;5.60;99.90;;;6.35;90.11;101894.31;5070243;28;20208;-68
2020/12/21 09:36:18;;;;;;;21.55;8.35;;;5.70;99.90;;;6.36;90.21;101891.72;5069931;28;20614;-69
2020/12/21 09:38:47;;;;;;;21.10;8.75;;;5.70;99.90;;;6.42;89.88;101890.84;5071890;28;20185;-68
2020/12/21 09:41:17;;;;;;;21.05;8.07;;;5.70;99.90;;;6.42;89.89;101892.56;5070198;28;20490;-68
2020/12/21 09:43:44;;;;;;;18.05;8.05;;;5.70;99.90;;;6.43;89.76;101891.72;5070227;28;20192;-68
2020/12/21 09:46:11;;;;;;;23.13;8.63;;;5.80;99.90;;;6.45;89.73;101893.44;5071857;28;20192;-69
2020/12/21 09:48:38;;;;;;;20.50;8.05;;;5.80;99.90;;;6.45;89.78;101885.63;5071107;28;20275;-68
2020/12/21 09:51:04;;;;;;;21.05;7.80;;;5.80;99.90;;;6.46;89.87;101882.19;5070136;28;20211;-68
2020/12/21 09:53:30;;;;;;;19.20;7.75;;;5.80;99.90;;;6.46;89.77;101887.38;5071485;28;20574;-68
2020/12/21 09:55:57;;;;;;;21.08;8.20;;;5.80;99.90;;;6.47;89.57;101883.03;5071676;28;20281;-68
2020/12/21 09:58:24;;;;;;;18.48;7.75;;;5.80;99.90;;;6.48;89.67;101875.22;5070243;28;20200;-68
2020/12/21 10:00:50;;;;;;;20.23;7.72;;;5.80;99.90;;;6.49;89.67;101871.78;5071887;28;20204;-68
2020/12/21 10:03:16;;;;;;;19.73;7.82;;;5.90;99.90;;;6.54;89.52;101872.63;5071511;28;20192;-69
2020/12/21 10:05:42;;;;;;;21.15;8.00;;;5.90;99.90;;;6.58;89.48;101876.94;5071103;28;20188;-68
2020/12/21 10:08:08;;;;;;;17.58;7.15;;;5.90;99.90;;;6.59;89.45;101859.63;5070974;28;20673;-68
2020/12/21 10:10:35;;;;;;;19.20;7.60;;;5.90;99.90;;;6.59;89.31;101860.50;5070012;28;20203;-68
2020/12/21 10:13:01;;;;;;;20.98;7.85;;;5.90;99.90;;;6.61;89.21;101861.34;5070681;28;20231;-68
2020/12/21 10:15:28;;;;;;;19.67;7.88;;;6.00;99.90;;;6.62;89.30;101844.00;5070346;28;20563;-68
2020/12/21 10:17:54;;;;;;;20.83;7.60;;;6.00;99.90;;;6.66;89.36;101848.31;5070652;28;20556;-68
2020/12/21 10:20:20;;;;;;;19.15;8.23;;;6.00;99.90;;;6.65;89.13;101850.06;5070359;28;20267;-68
2020/12/21 10:22:47;;;;;;;19.00;7.70;;;6.00;99.90;;;6.66;89.06;101846.59;5071934;28;20656;-68